createdAt,value
2023-05-05T00:04:08.294Z,13.75
2023-05-05T00:09:10.925Z,13.66
2023-05-05T00:14:14.162Z,13.55
2023-05-05T00:19:16.714Z,13.42
2023-05-05T00:24:20.988Z,13.30
2023-05-05T00:29:23.504Z,13.21
2023-05-05T00:34:26.171Z,13.11
2023-05-05T00:39:28.946Z,13.04
2023-05-05T00:44:38.566Z,13.04
2023-05-05T00:49:41.597Z,12.94
2023-05-05T00:54:44.398Z,12.92
2023-05-05T00:59:47.126Z,12.82
2023-05-05T01:04:54.491Z,12.79
2023-05-05T01:10:19.675Z,12.79
2023-05-05T01:15:33.706Z,12.79
2023-05-05T01:20:46.075Z,12.80
2023-05-05T01:25:55.039Z,12.79
2023-05-05T01:30:57.646Z,12.74
2023-05-05T01:36:12.373Z,12.68
2023-05-05T01:41:22.407Z,12.67
2023-05-05T01:46:25.638Z,12.62
2023-05-05T01:51:29.471Z,12.71
2023-05-05T01:56:33.254Z,12.77
2023-05-05T02:01:39.723Z,12.79
2023-05-05T02:06:44.792Z,12.79
2023-05-05T02:11:47.786Z,12.79
2023-05-05T02:16:50.913Z,12.74
2023-05-05T02:21:55.864Z,12.73
2023-05-05T02:27:00.853Z,12.71
2023-05-05T02:32:07.580Z,12.73
2023-05-05T02:37:12.939Z,12.78
2023-05-05T02:42:22.072Z,12.80
2023-05-05T02:47:36.976Z,12.93
2023-05-05T02:52:43.522Z,13.06
2023-05-05T02:57:56.903Z,13.17
2023-05-05T03:03:18.209Z,13.31
2023-05-05T03:08:32.128Z,13.46
2023-05-05T03:13:43.256Z,13.59
2023-05-05T03:18:52.864Z,13.77
2023-05-05T03:23:57.430Z,13.95
2023-05-05T03:29:00.153Z,14.24
2023-05-05T03:34:06.617Z,14.67
2023-05-05T03:39:15.016Z,15.09
2023-05-05T03:44:17.590Z,15.21
2023-05-05T03:49:20.420Z,15.26
2023-05-05T03:54:24.287Z,15.39
2023-05-05T03:59:28.682Z,15.57
2023-05-05T04:04:31.904Z,15.91
2023-05-05T04:09:34.368Z,16.11
2023-05-05T04:14:37.114Z,16.22
2023-05-05T04:19:40.334Z,16.41
2023-05-05T04:24:44.033Z,16.59
2023-05-05T04:29:46.733Z,16.76
2023-05-05T04:34:49.669Z,16.87
2023-05-05T04:39:53.362Z,17.14
2023-05-05T04:44:57.008Z,17.49
2023-05-05T04:50:00.009Z,17.89
2023-05-05T04:55:04.722Z,18.20
2023-05-05T05:00:10.056Z,18.51
2023-05-05T05:05:13.272Z,18.72
2023-05-05T05:10:15.765Z,18.83
2023-05-05T05:15:21.005Z,19.02
2023-05-05T05:20:23.599Z,19.34
2023-05-05T05:25:26.412Z,19.51
2023-05-05T05:30:29.373Z,19.55
2023-05-05T05:35:32.555Z,19.62
2023-05-05T05:40:35.224Z,19.65
2023-05-05T05:45:38.161Z,19.50
2023-05-05T05:50:42.410Z,19.34
2023-05-05T05:55:48.505Z,19.40
2023-05-05T06:00:51.823Z,19.61
2023-05-05T06:05:54.986Z,19.69
2023-05-05T06:10:58.173Z,19.84
2023-05-05T06:16:00.957Z,20.01
2023-05-05T06:21:03.984Z,20.13
2023-05-05T06:26:10.180Z,20.27
2023-05-05T06:31:14.553Z,20.42
2023-05-05T06:36:17.025Z,20.59
2023-05-05T06:41:19.569Z,20.71
2023-05-05T06:46:22.393Z,20.79
2023-05-05T06:51:24.946Z,20.90
2023-05-05T06:56:27.485Z,20.95
2023-05-05T07:01:29.938Z,21.04
2023-05-05T07:06:33.049Z,21.12
2023-05-05T07:11:35.502Z,21.23
2023-05-05T07:16:38.385Z,21.38
2023-05-05T07:21:43.899Z,21.63
2023-05-05T07:26:47.396Z,22.04
2023-05-05T07:31:49.900Z,22.56
2023-05-05T07:36:56.555Z,22.89
2023-05-05T07:41:59.180Z,23.03
2023-05-05T07:47:01.682Z,22.89
2023-05-05T07:52:04.355Z,22.78
2023-05-05T07:57:06.918Z,22.91
2023-05-05T08:02:10.865Z,23.21
2023-05-05T08:07:13.271Z,23.63
2023-05-05T08:12:18.108Z,23.71
2023-05-05T08:17:20.890Z,23.22
2023-05-05T08:22:23.432Z,22.95
2023-05-05T08:27:26.046Z,23.36
2023-05-05T08:32:29.827Z,24.23
2023-05-05T08:37:33.097Z,24.54
2023-05-05T08:42:39.708Z,24.52
2023-05-05T08:47:43.634Z,24.45
2023-05-05T08:52:54.094Z,24.41
2023-05-05T08:58:17.636Z,24.35
2023-05-05T09:03:21.122Z,24.51
2023-05-05T09:08:23.846Z,24.86
2023-05-05T09:13:26.394Z,25.09
2023-05-05T09:18:29.688Z,25.01
2023-05-05T09:23:35.039Z,25.39
2023-05-05T09:28:37.864Z,26.12
2023-05-05T09:33:40.526Z,26.26
2023-05-05T09:39:06.690Z,26.01
2023-05-05T09:44:09.686Z,25.69
2023-05-05T09:49:19.879Z,25.44
2023-05-05T09:54:27.088Z,25.13
2023-05-05T10:04:49.795Z,25.13
2023-05-05T10:09:52.378Z,25.13
2023-05-05T10:15:01.415Z,25.48
2023-05-05T10:20:13.228Z,25.57
2023-05-05T10:25:18.107Z,25.60
2023-05-05T10:30:24.765Z,25.99
2023-05-05T10:35:30.073Z,26.45
2023-05-05T10:40:33.273Z,27.21
2023-05-05T10:45:37.630Z,28.65
2023-05-05T10:50:58.718Z,29.67
2023-05-05T10:56:14.404Z,30.41
2023-05-05T11:01:30.784Z,30.91
2023-05-05T11:06:33.413Z,31.19
2023-05-05T11:12:05.700Z,31.60
2023-05-05T11:17:54.326Z,31.95
2023-05-05T11:23:03.613Z,31.98
2023-05-05T11:28:14.593Z,31.89
2023-05-05T11:33:31.373Z,30.49
2023-05-05T11:39:00.744Z,31.02
2023-05-05T11:44:16.634Z,30.05
2023-05-05T11:49:30.251Z,29.16
2023-05-05T11:54:35.184Z,30.37
2023-05-05T11:59:57.856Z,31.40
2023-05-05T12:05:03.696Z,31.65
2023-05-05T12:10:07.775Z,31.80
2023-05-05T12:15:10.662Z,32.45
2023-05-05T12:20:13.789Z,33.46
2023-05-05T12:25:17.232Z,34.11
2023-05-05T12:30:20.385Z,34.34
2023-05-05T12:35:22.990Z,34.37
2023-05-05T12:40:50.081Z,34.29
2023-05-05T12:46:06.405Z,34.54
2023-05-05T12:51:17.047Z,34.75
2023-05-05T12:56:37.199Z,34.89
2023-05-05T13:01:51.891Z,34.94
2023-05-05T13:07:12.440Z,34.45
2023-05-05T13:12:18.935Z,34.40
2023-05-05T13:17:21.564Z,34.02
2023-05-05T13:22:24.340Z,34.39
2023-05-05T13:27:27.395Z,34.33
2023-05-05T13:32:29.955Z,34.07
2023-05-05T13:37:32.635Z,33.46
2023-05-05T13:42:35.329Z,33.85
2023-05-05T13:47:38.366Z,34.42
2023-05-05T13:52:42.111Z,34.32
2023-05-05T13:57:45.589Z,34.44
2023-05-05T14:02:48.472Z,33.83
2023-05-05T14:07:51.002Z,32.89
2023-05-05T14:12:53.804Z,32.80
2023-05-05T14:17:56.826Z,30.53
2023-05-05T14:22:59.447Z,28.65
2023-05-05T14:28:02.101Z,27.92
2023-05-05T14:33:04.736Z,28.11
2023-05-05T14:38:07.290Z,27.13
2023-05-05T14:43:09.810Z,26.10
2023-05-05T14:48:12.552Z,25.48
2023-05-05T14:53:15.544Z,24.83
2023-05-05T14:58:22.588Z,24.25
2023-05-05T15:03:25.513Z,23.71
2023-05-05T15:08:28.247Z,23.30
2023-05-05T15:13:31.621Z,23.00
2023-05-05T15:18:34.575Z,22.68
2023-05-05T15:23:37.336Z,22.43
2023-05-05T15:28:39.919Z,22.19
2023-05-05T15:33:44.899Z,22.02
2023-05-05T15:38:47.597Z,21.85
2023-05-05T15:43:50.191Z,21.31
2023-05-05T15:48:52.717Z,20.80
2023-05-05T15:53:55.335Z,20.50
2023-05-05T15:58:57.930Z,20.30
2023-05-05T16:04:01.546Z,19.89
2023-05-05T16:09:04.358Z,19.62
2023-05-05T16:14:06.946Z,19.43
2023-05-05T16:19:09.576Z,19.25
2023-05-05T16:24:17.044Z,19.12
2023-05-05T16:29:19.654Z,19.01
2023-05-05T16:34:22.414Z,18.91
2023-05-05T16:39:24.993Z,18.88
2023-05-05T16:44:27.722Z,18.90
2023-05-05T16:49:30.808Z,18.94
2023-05-05T16:59:56.396Z,19.01
2023-05-05T17:04:59.063Z,19.05
2023-05-05T17:10:02.483Z,19.07
2023-05-05T17:15:07.155Z,19.07
2023-05-05T17:20:10.388Z,19.07
2023-05-05T17:25:12.946Z,19.03
2023-05-05T17:30:16.070Z,18.98
2023-05-05T17:35:20.260Z,18.95
2023-05-05T17:40:23.154Z,18.92
2023-05-05T17:45:25.930Z,18.91
2023-05-05T17:50:28.529Z,18.90
2023-05-05T17:55:31.335Z,18.88
2023-05-05T18:00:34.078Z,18.89
2023-05-05T18:05:38.855Z,18.83
2023-05-05T18:10:43.425Z,18.73
2023-05-05T18:15:45.976Z,18.68
2023-05-05T18:20:52.207Z,18.61
2023-05-05T18:25:54.750Z,18.52
2023-05-05T18:30:57.452Z,18.42
2023-05-05T18:36:00.099Z,18.23
2023-05-05T18:41:02.730Z,18.05
2023-05-05T18:46:05.542Z,17.78
2023-05-05T18:51:08.186Z,17.47
2023-05-05T18:56:10.820Z,17.28
2023-05-05T19:01:13.473Z,17.11
2023-05-05T19:06:16.686Z,16.94
2023-05-05T19:11:19.473Z,16.79
2023-05-05T19:16:22.370Z,16.81
2023-05-05T19:21:27.582Z,16.69
2023-05-05T19:26:30.527Z,16.82
2023-05-05T19:31:33.135Z,16.74
2023-05-05T19:36:36.146Z,16.65
2023-05-05T19:41:38.724Z,16.63
2023-05-05T19:46:41.450Z,16.56
2023-05-05T19:51:46.440Z,16.47
2023-05-05T19:56:49.277Z,16.34
2023-05-05T20:01:52.191Z,16.21
2023-05-05T20:06:55.101Z,16.12
2023-05-05T20:11:59.229Z,16.05
2023-05-05T20:17:01.793Z,15.97
2023-05-05T20:22:04.715Z,15.88
2023-05-05T20:27:07.677Z,15.81
2023-05-05T20:32:10.201Z,15.66
2023-05-05T20:37:14.035Z,15.62
2023-05-05T20:42:16.765Z,15.49
2023-05-05T20:47:19.417Z,15.54
2023-05-05T20:52:22.039Z,15.52
2023-05-05T20:57:24.828Z,15.43
2023-05-05T21:02:27.611Z,15.37
2023-05-05T21:07:33.387Z,15.29
2023-05-05T21:12:40.273Z,15.14
2023-05-05T21:17:43.125Z,15.12
2023-05-05T21:22:48.289Z,15.12
2023-05-05T21:27:51.018Z,15.07
2023-05-05T21:32:53.768Z,14.95
2023-05-05T21:37:56.650Z,14.75
2023-05-05T21:42:59.266Z,14.67
2023-05-05T21:48:02.094Z,14.63
2023-05-05T21:53:04.972Z,14.58
2023-05-05T21:58:07.473Z,14.50
2023-05-05T22:03:10.152Z,14.44
2023-05-05T22:08:12.885Z,14.30
2023-05-05T22:13:15.579Z,14.27
2023-05-05T22:18:18.225Z,14.17
2023-05-05T22:23:20.874Z,14.15
2023-05-05T22:28:25.692Z,14.12
2023-05-05T22:33:28.757Z,14.06
2023-05-05T22:38:32.686Z,14.09
2023-05-05T22:43:38.223Z,14.07
2023-05-05T22:48:40.949Z,14.03
2023-05-05T22:53:43.515Z,14.08
2023-05-05T22:58:47.151Z,14.09
2023-05-05T23:03:50.149Z,14.05
2023-05-05T23:08:52.929Z,14.09
2023-05-05T23:13:55.530Z,14.11
2023-05-05T23:18:58.060Z,14.09
2023-05-05T23:24:02.998Z,13.98
2023-05-05T23:29:06.236Z,13.90
2023-05-05T23:34:08.951Z,13.77
2023-05-05T23:39:11.683Z,13.63
2023-05-05T23:44:14.262Z,13.54
2023-05-05T23:49:16.823Z,13.45
2023-05-05T23:54:20.036Z,13.37
2023-05-05T23:59:25.251Z,13.30
